sensor_id;sensor_type;location;lat;lon;timestamp;P1;durP1;ratioP1;P2;durP2;ratioP2
64615;SDS011;51027;42.162;24.754;2023-12-07T00:00:31;31.98;;;15.65;;
64615;SDS011;51027;42.162;24.754;2023-12-07T00:02:57;29.63;;;12.85;;
64615;SDS011;51027;42.162;24.754;2023-12-07T00:05:22;30.83;;;13.82;;
64615;SDS011;51027;42.162;24.754;2023-12-07T00:07:48;34.35;;;14.70;;
64615;SDS011;51027;42.162;24.754;2023-12-07T00:10:13;32.03;;;14.88;;
64615;SDS011;51027;42.162;24.754;2023-12-07T00:12:40;37.75;;;14.13;;
64615;SDS011;51027;42.162;24.754;2023-12-07T00:15:05;32.88;;;14.02;;
64615;SDS011;51027;42.162;24.754;2023-12-07T00:17:31;34.45;;;13.93;;
64615;SDS011;51027;42.162;24.754;2023-12-07T00:19:57;29.90;;;13.02;;
64615;SDS011;51027;42.162;24.754;2023-12-07T00:22:22;29.85;;;13.43;;
64615;SDS011;51027;42.162;24.754;2023-12-07T00:24:49;30.73;;;12.27;;
64615;SDS011;51027;42.162;24.754;2023-12-07T00:27:15;29.23;;;12.75;;
64615;SDS011;51027;42.162;24.754;2023-12-07T00:29:40;28.27;;;13.82;;
64615;SDS011;51027;42.162;24.754;2023-12-07T00:32:06;26.55;;;12.98;;
64615;SDS011;51027;42.162;24.754;2023-12-07T00:34:31;31.08;;;12.20;;
64615;SDS011;51027;42.162;24.754;2023-12-07T00:36:57;30.15;;;12.85;;
64615;SDS011;51027;42.162;24.754;2023-12-07T00:39:22;28.65;;;12.77;;
64615;SDS011;51027;42.162;24.754;2023-12-07T00:41:48;31.60;;;13.05;;
64615;SDS011;51027;42.162;24.754;2023-12-07T00:44:13;27.77;;;11.88;;
64615;SDS011;51027;42.162;24.754;2023-12-07T00:46:39;26.00;;;11.95;;
64615;SDS011;51027;42.162;24.754;2023-12-07T00:49:05;26.23;;;12.10;;
64615;SDS011;51027;42.162;24.754;2023-12-07T00:51:31;28.55;;;12.77;;
64615;SDS011;51027;42.162;24.754;2023-12-07T00:53:57;29.85;;;12.63;;
64615;SDS011;51027;42.162;24.754;2023-12-07T00:56:23;27.75;;;12.18;;
64615;SDS011;51027;42.162;24.754;2023-12-07T00:58:49;25.00;;;11.70;;
64615;SDS011;51027;42.162;24.754;2023-12-07T01:01:14;26.60;;;12.25;;
64615;SDS011;51027;42.162;24.754;2023-12-07T01:03:40;29.95;;;11.55;;
64615;SDS011;51027;42.162;24.754;2023-12-07T01:06:06;27.17;;;12.35;;
64615;SDS011;51027;42.162;24.754;2023-12-07T01:08:32;23.30;;;10.13;;
64615;SDS011;51027;42.162;24.754;2023-12-07T01:10:57;23.67;;;10.35;;
64615;SDS011;51027;42.162;24.754;2023-12-07T01:13:23;27.55;;;11.32;;
64615;SDS011;51027;42.162;24.754;2023-12-07T01:15:49;27.98;;;11.35;;
64615;SDS011;51027;42.162;24.754;2023-12-07T01:18:15;27.70;;;12.25;;
64615;SDS011;51027;42.162;24.754;2023-12-07T01:20:40;25.98;;;11.82;;
64615;SDS011;51027;42.162;24.754;2023-12-07T01:23:06;28.23;;;12.50;;
64615;SDS011;51027;42.162;24.754;2023-12-07T01:25:33;27.73;;;12.07;;
64615;SDS011;51027;42.162;24.754;2023-12-07T01:27:59;29.27;;;11.18;;
64615;SDS011;51027;42.162;24.754;2023-12-07T01:30:25;29.63;;;11.93;;
64615;SDS011;51027;42.162;24.754;2023-12-07T01:32:50;28.27;;;12.77;;
64615;SDS011;51027;42.162;24.754;2023-12-07T01:35:16;27.45;;;11.73;;
64615;SDS011;51027;42.162;24.754;2023-12-07T01:37:42;26.13;;;11.32;;
64615;SDS011;51027;42.162;24.754;2023-12-07T01:40:07;27.45;;;12.23;;
64615;SDS011;51027;42.162;24.754;2023-12-07T01:42:38;29.30;;;12.25;;
64615;SDS011;51027;42.162;24.754;2023-12-07T01:45:04;27.23;;;12.70;;
64615;SDS011;51027;42.162;24.754;2023-12-07T01:47:31;31.42;;;11.60;;
64615;SDS011;51027;42.162;24.754;2023-12-07T01:49:58;27.85;;;13.07;;
64615;SDS011;51027;42.162;24.754;2023-12-07T01:52:26;26.33;;;12.73;;
64615;SDS011;51027;42.162;24.754;2023-12-07T01:54:54;30.38;;;12.43;;
64615;SDS011;51027;42.162;24.754;2023-12-07T01:57:20;29.00;;;13.00;;
64615;SDS011;51027;42.162;24.754;2023-12-07T01:59:46;30.52;;;12.98;;
64615;SDS011;51027;42.162;24.754;2023-12-07T02:02:12;28.52;;;12.93;;
64615;SDS011;51027;42.162;24.754;2023-12-07T02:04:38;30.10;;;12.60;;
64615;SDS011;51027;42.162;24.754;2023-12-07T02:07:03;28.33;;;12.40;;
64615;SDS011;51027;42.162;24.754;2023-12-07T02:09:29;27.33;;;11.88;;
64615;SDS011;51027;42.162;24.754;2023-12-07T02:11:55;27.00;;;11.02;;
64615;SDS011;51027;42.162;24.754;2023-12-07T02:14:21;26.25;;;11.38;;
64615;SDS011;51027;42.162;24.754;2023-12-07T02:17:08;28.77;;;12.35;;
64615;SDS011;51027;42.162;24.754;2023-12-07T02:22:29;29.98;;;12.82;;
64615;SDS011;51027;42.162;24.754;2023-12-07T02:25:04;31.17;;;13.43;;
64615;SDS011;51027;42.162;24.754;2023-12-07T02:27:38;28.25;;;13.30;;
64615;SDS011;51027;42.162;24.754;2023-12-07T02:30:04;28.63;;;12.68;;
64615;SDS011;51027;42.162;24.754;2023-12-07T02:49:20;31.02;;;12.88;;
64615;SDS011;51027;42.162;24.754;2023-12-07T02:51:45;31.60;;;13.93;;
64615;SDS011;51027;42.162;24.754;2023-12-07T02:54:11;36.60;;;13.80;;
64615;SDS011;51027;42.162;24.754;2023-12-07T02:56:36;33.72;;;14.80;;
64615;SDS011;51027;42.162;24.754;2023-12-07T02:59:01;37.90;;;15.05;;
64615;SDS011;51027;42.162;24.754;2023-12-07T03:01:27;36.30;;;15.60;;
64615;SDS011;51027;42.162;24.754;2023-12-07T03:03:52;33.53;;;15.38;;
64615;SDS011;51027;42.162;24.754;2023-12-07T03:06:18;31.08;;;14.20;;
64615;SDS011;51027;42.162;24.754;2023-12-07T03:08:44;39.03;;;14.73;;
64615;SDS011;51027;42.162;24.754;2023-12-07T03:11:10;36.50;;;16.17;;
64615;SDS011;51027;42.162;24.754;2023-12-07T03:13:35;37.25;;;16.70;;
64615;SDS011;51027;42.162;24.754;2023-12-07T03:16:01;37.13;;;17.00;;
64615;SDS011;51027;42.162;24.754;2023-12-07T03:18:26;40.78;;;16.33;;
64615;SDS011;51027;42.162;24.754;2023-12-07T03:20:52;36.47;;;15.73;;
64615;SDS011;51027;42.162;24.754;2023-12-07T03:23:17;31.15;;;14.70;;
64615;SDS011;51027;42.162;24.754;2023-12-07T03:25:43;37.22;;;15.70;;
64615;SDS011;51027;42.162;24.754;2023-12-07T03:28:08;38.75;;;17.02;;
64615;SDS011;51027;42.162;24.754;2023-12-07T03:30:33;34.63;;;15.90;;
64615;SDS011;51027;42.162;24.754;2023-12-07T03:32:59;36.47;;;15.95;;
64615;SDS011;51027;42.162;24.754;2023-12-07T03:35:24;34.80;;;15.25;;
64615;SDS011;51027;42.162;24.754;2023-12-07T03:37:50;37.05;;;15.77;;
64615;SDS011;51027;42.162;24.754;2023-12-07T03:40:15;33.35;;;16.10;;
64615;SDS011;51027;42.162;24.754;2023-12-07T03:42:41;32.72;;;14.43;;
64615;SDS011;51027;42.162;24.754;2023-12-07T03:45:07;38.55;;;16.75;;
64615;SDS011;51027;42.162;24.754;2023-12-07T03:47:32;31.17;;;15.02;;
64615;SDS011;51027;42.162;24.754;2023-12-07T03:49:58;38.10;;;16.13;;
64615;SDS011;51027;42.162;24.754;2023-12-07T03:52:23;37.00;;;15.95;;
64615;SDS011;51027;42.162;24.754;2023-12-07T03:54:49;41.08;;;15.38;;
64615;SDS011;51027;42.162;24.754;2023-12-07T03:57:14;32.15;;;15.98;;
64615;SDS011;51027;42.162;24.754;2023-12-07T03:59:40;33.72;;;16.48;;
64615;SDS011;51027;42.162;24.754;2023-12-07T04:02:05;33.60;;;15.63;;
64615;SDS011;51027;42.162;24.754;2023-12-07T04:04:31;31.80;;;15.80;;
64615;SDS011;51027;42.162;24.754;2023-12-07T04:06:56;35.53;;;16.08;;
64615;SDS011;51027;42.162;24.754;2023-12-07T04:09:22;31.98;;;14.68;;
64615;SDS011;51027;42.162;24.754;2023-12-07T04:11:47;37.15;;;16.10;;
64615;SDS011;51027;42.162;24.754;2023-12-07T04:14:13;32.33;;;15.45;;
64615;SDS011;51027;42.162;24.754;2023-12-07T04:16:38;33.92;;;15.95;;
64615;SDS011;51027;42.162;24.754;2023-12-07T04:19:04;36.65;;;16.48;;
64615;SDS011;51027;42.162;24.754;2023-12-07T04:21:29;37.72;;;16.30;;
64615;SDS011;51027;42.162;24.754;2023-12-07T04:23:55;34.95;;;16.45;;
64615;SDS011;51027;42.162;24.754;2023-12-07T04:26:20;40.00;;;17.77;;
64615;SDS011;51027;42.162;24.754;2023-12-07T04:28:46;37.78;;;17.35;;
64615;SDS011;51027;42.162;24.754;2023-12-07T04:31:11;39.97;;;17.30;;
64615;SDS011;51027;42.162;24.754;2023-12-07T04:33:37;41.83;;;17.23;;
64615;SDS011;51027;42.162;24.754;2023-12-07T04:36:02;36.60;;;17.08;;
64615;SDS011;51027;42.162;24.754;2023-12-07T04:38:29;34.47;;;16.40;;
64615;SDS011;51027;42.162;24.754;2023-12-07T04:40:55;35.28;;;16.33;;
64615;SDS011;51027;42.162;24.754;2023-12-07T04:43:20;35.58;;;16.70;;
64615;SDS011;51027;42.162;24.754;2023-12-07T04:45:46;38.75;;;17.05;;
64615;SDS011;51027;42.162;24.754;2023-12-07T04:48:11;37.25;;;18.30;;
64615;SDS011;51027;42.162;24.754;2023-12-07T04:50:37;38.25;;;18.35;;
64615;SDS011;51027;42.162;24.754;2023-12-07T04:53:02;35.85;;;16.52;;
64615;SDS011;51027;42.162;24.754;2023-12-07T04:55:28;35.80;;;16.33;;
64615;SDS011;51027;42.162;24.754;2023-12-07T04:57:53;33.65;;;15.95;;
64615;SDS011;51027;42.162;24.754;2023-12-07T05:00:19;38.65;;;16.80;;
64615;SDS011;51027;42.162;24.754;2023-12-07T05:02:45;39.45;;;17.30;;
64615;SDS011;51027;42.162;24.754;2023-12-07T05:05:10;38.72;;;17.80;;
64615;SDS011;51027;42.162;24.754;2023-12-07T05:07:36;38.60;;;18.73;;
64615;SDS011;51027;42.162;24.754;2023-12-07T05:10:02;40.38;;;17.98;;
64615;SDS011;51027;42.162;24.754;2023-12-07T05:12:28;34.55;;;16.48;;
64615;SDS011;51027;42.162;24.754;2023-12-07T05:14:53;34.60;;;16.70;;
64615;SDS011;51027;42.162;24.754;2023-12-07T05:17:19;34.00;;;17.70;;
64615;SDS011;51027;42.162;24.754;2023-12-07T05:19:45;36.38;;;17.38;;
64615;SDS011;51027;42.162;24.754;2023-12-07T05:22:10;35.92;;;18.38;;
64615;SDS011;51027;42.162;24.754;2023-12-07T05:24:36;40.65;;;21.75;;
64615;SDS011;51027;42.162;24.754;2023-12-07T05:27:01;36.50;;;19.75;;
64615;SDS011;51027;42.162;24.754;2023-12-07T05:29:29;35.42;;;18.08;;
64615;SDS011;51027;42.162;24.754;2023-12-07T05:31:54;33.92;;;18.77;;
64615;SDS011;51027;42.162;24.754;2023-12-07T05:34:20;36.60;;;18.23;;
64615;SDS011;51027;42.162;24.754;2023-12-07T05:36:46;40.25;;;18.13;;
64615;SDS011;51027;42.162;24.754;2023-12-07T05:39:12;37.28;;;17.98;;
64615;SDS011;51027;42.162;24.754;2023-12-07T05:41:38;35.60;;;17.48;;
64615;SDS011;51027;42.162;24.754;2023-12-07T05:44:04;39.10;;;20.38;;
64615;SDS011;51027;42.162;24.754;2023-12-07T05:46:29;38.80;;;18.23;;
64615;SDS011;51027;42.162;24.754;2023-12-07T05:48:55;38.85;;;18.15;;
64615;SDS011;51027;42.162;24.754;2023-12-07T05:51:22;41.92;;;18.70;;
64615;SDS011;51027;42.162;24.754;2023-12-07T05:53:48;35.95;;;18.40;;
64615;SDS011;51027;42.162;24.754;2023-12-07T05:56:17;40.92;;;18.70;;
64615;SDS011;51027;42.162;24.754;2023-12-07T05:58:45;40.28;;;18.70;;
64615;SDS011;51027;42.162;24.754;2023-12-07T06:01:11;40.25;;;22.30;;
64615;SDS011;51027;42.162;24.754;2023-12-07T06:03:36;39.20;;;19.67;;
64615;SDS011;51027;42.162;24.754;2023-12-07T06:06:02;39.63;;;22.02;;
64615;SDS011;51027;42.162;24.754;2023-12-07T06:08:27;53.13;;;27.33;;
64615;SDS011;51027;42.162;24.754;2023-12-07T06:10:53;38.83;;;22.20;;
64615;SDS011;51027;42.162;24.754;2023-12-07T06:13:18;44.65;;;21.70;;
64615;SDS011;51027;42.162;24.754;2023-12-07T06:15:44;43.20;;;24.35;;
64615;SDS011;51027;42.162;24.754;2023-12-07T06:18:09;45.25;;;23.42;;
64615;SDS011;51027;42.162;24.754;2023-12-07T06:20:34;42.42;;;20.42;;
64615;SDS011;51027;42.162;24.754;2023-12-07T06:23:00;45.78;;;23.20;;
64615;SDS011;51027;42.162;24.754;2023-12-07T06:25:27;46.15;;;23.63;;
64615;SDS011;51027;42.162;24.754;2023-12-07T06:27:52;44.88;;;23.88;;
64615;SDS011;51027;42.162;24.754;2023-12-07T06:30:18;45.28;;;24.52;;
64615;SDS011;51027;42.162;24.754;2023-12-07T06:32:44;48.28;;;26.13;;
64615;SDS011;51027;42.162;24.754;2023-12-07T06:35:12;45.40;;;24.10;;
64615;SDS011;51027;42.162;24.754;2023-12-07T06:37:38;43.58;;;22.10;;
64615;SDS011;51027;42.162;24.754;2023-12-07T06:40:06;49.07;;;24.17;;
64615;SDS011;51027;42.162;24.754;2023-12-07T06:42:34;45.00;;;24.42;;
64615;SDS011;51027;42.162;24.754;2023-12-07T06:45:01;47.35;;;23.75;;
64615;SDS011;51027;42.162;24.754;2023-12-07T06:47:27;45.60;;;24.05;;
64615;SDS011;51027;42.162;24.754;2023-12-07T06:49:53;46.53;;;26.05;;
64615;SDS011;51027;42.162;24.754;2023-12-07T06:52:19;50.05;;;26.15;;
64615;SDS011;51027;42.162;24.754;2023-12-07T06:54:44;50.97;;;25.30;;
64615;SDS011;51027;42.162;24.754;2023-12-07T06:57:10;55.15;;;28.83;;
64615;SDS011;51027;42.162;24.754;2023-12-07T06:59:35;52.03;;;29.83;;
64615;SDS011;51027;42.162;24.754;2023-12-07T07:02:01;50.95;;;30.55;;
64615;SDS011;51027;42.162;24.754;2023-12-07T07:04:27;47.80;;;26.58;;
64615;SDS011;51027;42.162;24.754;2023-12-07T07:06:52;46.92;;;25.85;;
64615;SDS011;51027;42.162;24.754;2023-12-07T07:09:18;48.30;;;26.08;;
64615;SDS011;51027;42.162;24.754;2023-12-07T07:11:49;52.30;;;28.52;;
64615;SDS011;51027;42.162;24.754;2023-12-07T07:14:21;45.22;;;23.73;;
64615;SDS011;51027;42.162;24.754;2023-12-07T07:16:46;46.63;;;23.88;;
64615;SDS011;51027;42.162;24.754;2023-12-07T07:19:13;46.53;;;24.48;;
64615;SDS011;51027;42.162;24.754;2023-12-07T07:21:38;43.20;;;22.80;;
64615;SDS011;51027;42.162;24.754;2023-12-07T07:24:04;41.70;;;22.30;;
64615;SDS011;51027;42.162;24.754;2023-12-07T07:26:31;37.63;;;20.42;;
64615;SDS011;51027;42.162;24.754;2023-12-07T07:28:57;36.05;;;19.20;;
64615;SDS011;51027;42.162;24.754;2023-12-07T07:31:22;42.97;;;22.17;;
64615;SDS011;51027;42.162;24.754;2023-12-07T07:33:48;38.42;;;21.33;;
64615;SDS011;51027;42.162;24.754;2023-12-07T07:36:13;43.53;;;23.88;;
64615;SDS011;51027;42.162;24.754;2023-12-07T07:38:42;44.88;;;23.88;;
64615;SDS011;51027;42.162;24.754;2023-12-07T07:41:09;50.80;;;27.23;;
64615;SDS011;51027;42.162;24.754;2023-12-07T07:43:35;49.28;;;25.92;;
64615;SDS011;51027;42.162;24.754;2023-12-07T07:46:00;48.85;;;26.50;;
64615;SDS011;51027;42.162;24.754;2023-12-07T07:48:26;53.17;;;26.27;;
64615;SDS011;51027;42.162;24.754;2023-12-07T07:50:51;45.78;;;25.50;;
64615;SDS011;51027;42.162;24.754;2023-12-07T07:53:17;46.55;;;24.35;;
64615;SDS011;51027;42.162;24.754;2023-12-07T07:55:43;40.58;;;21.55;;
64615;SDS011;51027;42.162;24.754;2023-12-07T07:58:08;38.53;;;20.65;;
64615;SDS011;51027;42.162;24.754;2023-12-07T08:00:34;42.50;;;20.88;;
64615;SDS011;51027;42.162;24.754;2023-12-07T08:02:59;39.58;;;22.40;;
64615;SDS011;51027;42.162;24.754;2023-12-07T08:05:25;41.75;;;21.33;;
64615;SDS011;51027;42.162;24.754;2023-12-07T08:07:51;42.63;;;21.58;;
64615;SDS011;51027;42.162;24.754;2023-12-07T08:10:16;34.05;;;18.83;;
64615;SDS011;51027;42.162;24.754;2023-12-07T08:12:42;33.80;;;18.13;;
64615;SDS011;51027;42.162;24.754;2023-12-07T08:15:08;36.22;;;17.80;;
64615;SDS011;51027;42.162;24.754;2023-12-07T08:17:40;36.90;;;17.87;;
64615;SDS011;51027;42.162;24.754;2023-12-07T08:22:36;35.83;;;17.33;;
64615;SDS011;51027;42.162;24.754;2023-12-07T08:25:02;34.22;;;15.80;;
64615;SDS011;51027;42.162;24.754;2023-12-07T08:27:30;30.23;;;14.55;;
64615;SDS011;51027;42.162;24.754;2023-12-07T08:29:58;33.25;;;16.00;;
64615;SDS011;51027;42.162;24.754;2023-12-07T08:32:24;29.33;;;16.55;;
64615;SDS011;51027;42.162;24.754;2023-12-07T08:34:53;30.10;;;17.35;;
64615;SDS011;51027;42.162;24.754;2023-12-07T08:37:19;32.40;;;16.20;;
64615;SDS011;51027;42.162;24.754;2023-12-07T08:39:45;34.92;;;18.17;;
64615;SDS011;51027;42.162;24.754;2023-12-07T08:42:11;38.40;;;19.35;;
64615;SDS011;51027;42.162;24.754;2023-12-07T08:44:37;37.75;;;19.35;;
64615;SDS011;51027;42.162;24.754;2023-12-07T08:47:03;41.80;;;21.58;;
64615;SDS011;51027;42.162;24.754;2023-12-07T08:49:30;40.35;;;21.05;;
64615;SDS011;51027;42.162;24.754;2023-12-07T08:51:56;45.47;;;24.45;;
64615;SDS011;51027;42.162;24.754;2023-12-07T08:54:22;48.95;;;26.33;;
64615;SDS011;51027;42.162;24.754;2023-12-07T08:56:47;46.15;;;24.88;;
64615;SDS011;51027;42.162;24.754;2023-12-07T08:59:13;41.47;;;23.33;;
64615;SDS011;51027;42.162;24.754;2023-12-07T09:01:38;44.03;;;23.40;;
64615;SDS011;51027;42.162;24.754;2023-12-07T09:04:04;45.67;;;22.63;;
64615;SDS011;51027;42.162;24.754;2023-12-07T09:06:30;41.88;;;23.13;;
64615;SDS011;51027;42.162;24.754;2023-12-07T09:08:56;38.58;;;22.60;;
64615;SDS011;51027;42.162;24.754;2023-12-07T09:11:21;37.67;;;20.58;;
64615;SDS011;51027;42.162;24.754;2023-12-07T09:13:47;35.05;;;19.25;;
64615;SDS011;51027;42.162;24.754;2023-12-07T09:16:13;30.77;;;16.70;;
64615;SDS011;51027;42.162;24.754;2023-12-07T09:18:40;33.72;;;17.55;;
64615;SDS011;51027;42.162;24.754;2023-12-07T09:21:06;35.22;;;17.80;;
64615;SDS011;51027;42.162;24.754;2023-12-07T09:23:32;35.45;;;18.55;;
64615;SDS011;51027;42.162;24.754;2023-12-07T09:26:00;37.85;;;19.30;;
64615;SDS011;51027;42.162;24.754;2023-12-07T09:28:25;36.15;;;19.73;;
64615;SDS011;51027;42.162;24.754;2023-12-07T09:30:51;35.95;;;19.73;;
64615;SDS011;51027;42.162;24.754;2023-12-07T09:33:16;29.73;;;18.15;;
64615;SDS011;51027;42.162;24.754;2023-12-07T09:35:42;31.60;;;16.58;;
64615;SDS011;51027;42.162;24.754;2023-12-07T09:38:07;34.15;;;18.38;;
64615;SDS011;51027;42.162;24.754;2023-12-07T09:40:34;32.53;;;17.90;;
64615;SDS011;51027;42.162;24.754;2023-12-07T09:43:00;32.33;;;17.40;;
64615;SDS011;51027;42.162;24.754;2023-12-07T09:45:26;33.70;;;17.23;;
64615;SDS011;51027;42.162;24.754;2023-12-07T09:47:52;31.10;;;15.60;;
64615;SDS011;51027;42.162;24.754;2023-12-07T09:50:19;30.17;;;15.57;;
64615;SDS011;51027;42.162;24.754;2023-12-07T09:52:49;30.75;;;16.75;;
64615;SDS011;51027;42.162;24.754;2023-12-07T09:55:20;33.63;;;16.50;;
64615;SDS011;51027;42.162;24.754;2023-12-07T09:57:47;29.85;;;15.18;;
64615;SDS011;51027;42.162;24.754;2023-12-07T10:00:14;25.77;;;12.50;;
64615;SDS011;51027;42.162;24.754;2023-12-07T10:02:40;25.70;;;11.98;;
64615;SDS011;51027;42.162;24.754;2023-12-07T10:05:13;24.27;;;11.55;;
64615;SDS011;51027;42.162;24.754;2023-12-07T10:07:43;21.30;;;9.95;;
64615;SDS011;51027;42.162;24.754;2023-12-07T10:10:11;22.98;;;10.75;;
64615;SDS011;51027;42.162;24.754;2023-12-07T10:12:43;24.10;;;11.23;;
64615;SDS011;51027;42.162;24.754;2023-12-07T10:15:21;22.15;;;10.35;;
64615;SDS011;51027;42.162;24.754;2023-12-07T10:17:48;21.65;;;10.05;;
64615;SDS011;51027;42.162;24.754;2023-12-07T10:20:24;22.20;;;9.57;;
64615;SDS011;51027;42.162;24.754;2023-12-07T10:23:11;24.45;;;9.50;;
64615;SDS011;51027;42.162;24.754;2023-12-07T10:25:40;22.88;;;8.75;;
64615;SDS011;51027;42.162;24.754;2023-12-07T10:28:09;31.98;;;12.10;;
64615;SDS011;51027;42.162;24.754;2023-12-07T10:30:39;26.30;;;12.02;;
64615;SDS011;51027;42.162;24.754;2023-12-07T10:33:06;23.83;;;9.77;;
64615;SDS011;51027;42.162;24.754;2023-12-07T10:35:33;24.25;;;10.98;;
64615;SDS011;51027;42.162;24.754;2023-12-07T10:38:03;22.52;;;10.70;;
64615;SDS011;51027;42.162;24.754;2023-12-07T10:40:28;26.15;;;10.82;;
64615;SDS011;51027;42.162;24.754;2023-12-07T10:42:55;24.23;;;11.02;;
64615;SDS011;51027;42.162;24.754;2023-12-07T10:45:24;27.17;;;11.90;;
64615;SDS011;51027;42.162;24.754;2023-12-07T10:47:51;22.60;;;9.95;;
64615;SDS011;51027;42.162;24.754;2023-12-07T10:50:21;20.73;;;9.23;;
64615;SDS011;51027;42.162;24.754;2023-12-07T10:52:51;21.45;;;9.15;;
64615;SDS011;51027;42.162;24.754;2023-12-07T10:55:20;22.48;;;8.90;;
64615;SDS011;51027;42.162;24.754;2023-12-07T10:57:49;22.20;;;8.55;;
64615;SDS011;51027;42.162;24.754;2023-12-07T11:00:18;23.02;;;9.27;;
64615;SDS011;51027;42.162;24.754;2023-12-07T11:02:44;21.02;;;7.88;;
64615;SDS011;51027;42.162;24.754;2023-12-07T11:05:11;20.60;;;8.40;;
64615;SDS011;51027;42.162;24.754;2023-12-07T11:07:57;22.15;;;8.05;;
64615;SDS011;51027;42.162;24.754;2023-12-07T11:10:40;21.80;;;8.82;;
64615;SDS011;51027;42.162;24.754;2023-12-07T11:13:21;19.17;;;7.90;;
64615;SDS011;51027;42.162;24.754;2023-12-07T11:15:52;20.70;;;9.65;;
64615;SDS011;51027;42.162;24.754;2023-12-07T11:18:18;20.85;;;8.57;;
64615;SDS011;51027;42.162;24.754;2023-12-07T11:20:44;21.35;;;8.32;;
64615;SDS011;51027;42.162;24.754;2023-12-07T11:23:16;22.27;;;8.80;;
64615;SDS011;51027;42.162;24.754;2023-12-07T11:25:44;19.35;;;8.10;;
64615;SDS011;51027;42.162;24.754;2023-12-07T11:28:10;16.83;;;6.00;;
64615;SDS011;51027;42.162;24.754;2023-12-07T11:30:37;20.63;;;7.85;;
64615;SDS011;51027;42.162;24.754;2023-12-07T11:33:06;19.52;;;7.80;;
64615;SDS011;51027;42.162;24.754;2023-12-07T11:35:32;19.52;;;7.30;;
64615;SDS011;51027;42.162;24.754;2023-12-07T11:40:36;19.15;;;7.43;;
64615;SDS011;51027;42.162;24.754;2023-12-07T11:43:15;21.30;;;8.00;;
64615;SDS011;51027;42.162;24.754;2023-12-07T11:45:51;20.33;;;7.68;;
64615;SDS011;51027;42.162;24.754;2023-12-07T11:48:18;21.45;;;8.30;;
64615;SDS011;51027;42.162;24.754;2023-12-07T11:51:03;22.15;;;8.45;;
64615;SDS011;51027;42.162;24.754;2023-12-07T11:53:31;19.20;;;7.28;;
64615;SDS011;51027;42.162;24.754;2023-12-07T11:56:04;18.45;;;6.80;;
64615;SDS011;51027;42.162;24.754;2023-12-07T11:58:31;19.40;;;7.07;;
64615;SDS011;51027;42.162;24.754;2023-12-07T12:00:58;17.90;;;7.03;;
64615;SDS011;51027;42.162;24.754;2023-12-07T12:03:24;18.92;;;7.45;;
64615;SDS011;51027;42.162;24.754;2023-12-07T12:05:51;18.33;;;7.40;;
64615;SDS011;51027;42.162;24.754;2023-12-07T12:08:17;17.83;;;6.28;;
64615;SDS011;51027;42.162;24.754;2023-12-07T12:10:47;17.40;;;7.28;;
64615;SDS011;51027;42.162;24.754;2023-12-07T12:13:31;18.85;;;7.43;;
64615;SDS011;51027;42.162;24.754;2023-12-07T12:16:09;20.05;;;8.00;;
64615;SDS011;51027;42.162;24.754;2023-12-07T12:18:34;20.20;;;7.47;;
64615;SDS011;51027;42.162;24.754;2023-12-07T12:21:02;16.55;;;6.43;;
64615;SDS011;51027;42.162;24.754;2023-12-07T12:23:28;18.42;;;6.63;;
64615;SDS011;51027;42.162;24.754;2023-12-07T12:25:54;18.88;;;7.50;;
64615;SDS011;51027;42.162;24.754;2023-12-07T12:28:23;18.88;;;7.00;;
64615;SDS011;51027;42.162;24.754;2023-12-07T12:30:49;20.42;;;8.40;;
64615;SDS011;51027;42.162;24.754;2023-12-07T12:33:16;20.27;;;7.70;;
64615;SDS011;51027;42.162;24.754;2023-12-07T12:35:42;19.88;;;8.00;;
64615;SDS011;51027;42.162;24.754;2023-12-07T12:38:09;18.50;;;7.95;;
64615;SDS011;51027;42.162;24.754;2023-12-07T12:40:36;19.63;;;8.13;;
64615;SDS011;51027;42.162;24.754;2023-12-07T12:43:01;19.67;;;7.20;;
64615;SDS011;51027;42.162;24.754;2023-12-07T12:45:27;20.67;;;6.93;;
64615;SDS011;51027;42.162;24.754;2023-12-07T12:47:53;19.60;;;7.03;;
64615;SDS011;51027;42.162;24.754;2023-12-07T12:50:32;20.65;;;7.05;;
64615;SDS011;51027;42.162;24.754;2023-12-07T12:52:59;16.53;;;6.43;;
64615;SDS011;51027;42.162;24.754;2023-12-07T12:55:28;19.08;;;6.78;;
64615;SDS011;51027;42.162;24.754;2023-12-07T12:57:56;19.75;;;7.03;;
64615;SDS011;51027;42.162;24.754;2023-12-07T13:00:24;18.23;;;7.15;;
64615;SDS011;51027;42.162;24.754;2023-12-07T13:02:50;16.30;;;6.15;;
64615;SDS011;51027;42.162;24.754;2023-12-07T13:05:15;18.55;;;6.57;;
64615;SDS011;51027;42.162;24.754;2023-12-07T13:07:43;16.75;;;6.10;;
64615;SDS011;51027;42.162;24.754;2023-12-07T13:10:09;17.48;;;5.93;;
64615;SDS011;51027;42.162;24.754;2023-12-07T13:12:35;18.92;;;6.60;;
64615;SDS011;51027;42.162;24.754;2023-12-07T13:15:01;22.23;;;7.65;;
64615;SDS011;51027;42.162;24.754;2023-12-07T13:17:27;19.02;;;7.72;;
64615;SDS011;51027;42.162;24.754;2023-12-07T13:19:52;20.35;;;8.32;;
64615;SDS011;51027;42.162;24.754;2023-12-07T13:22:19;21.10;;;8.75;;
64615;SDS011;51027;42.162;24.754;2023-12-07T13:24:45;23.73;;;8.95;;
64615;SDS011;51027;42.162;24.754;2023-12-07T13:27:13;21.25;;;7.28;;
64615;SDS011;51027;42.162;24.754;2023-12-07T13:29:40;22.17;;;8.18;;
64615;SDS011;51027;42.162;24.754;2023-12-07T13:32:06;19.80;;;8.10;;
64615;SDS011;51027;42.162;24.754;2023-12-07T13:34:32;18.73;;;7.55;;
64615;SDS011;51027;42.162;24.754;2023-12-07T13:36:58;19.90;;;7.15;;
64615;SDS011;51027;42.162;24.754;2023-12-07T13:39:23;19.17;;;7.00;;
64615;SDS011;51027;42.162;24.754;2023-12-07T13:41:49;17.80;;;6.80;;
64615;SDS011;51027;42.162;24.754;2023-12-07T13:44:15;18.92;;;7.28;;
64615;SDS011;51027;42.162;24.754;2023-12-07T13:46:42;19.67;;;8.45;;
64615;SDS011;51027;42.162;24.754;2023-12-07T13:49:09;22.67;;;8.90;;
64615;SDS011;51027;42.162;24.754;2023-12-07T13:51:36;20.63;;;8.88;;
64615;SDS011;51027;42.162;24.754;2023-12-07T13:54:02;20.42;;;7.88;;
64615;SDS011;51027;42.162;24.754;2023-12-07T13:56:28;19.83;;;8.18;;
64615;SDS011;51027;42.162;24.754;2023-12-07T13:58:53;19.08;;;7.45;;
64615;SDS011;51027;42.162;24.754;2023-12-07T14:01:19;19.85;;;7.88;;
64615;SDS011;51027;42.162;24.754;2023-12-07T14:03:44;18.65;;;6.90;;
64615;SDS011;51027;42.162;24.754;2023-12-07T14:06:10;16.95;;;6.35;;
64615;SDS011;51027;42.162;24.754;2023-12-07T14:08:37;18.15;;;6.75;;
64615;SDS011;51027;42.162;24.754;2023-12-07T14:11:03;17.13;;;6.55;;
64615;SDS011;51027;42.162;24.754;2023-12-07T14:13:29;18.58;;;6.13;;
64615;SDS011;51027;42.162;24.754;2023-12-07T14:15:54;20.33;;;8.93;;
64615;SDS011;51027;42.162;24.754;2023-12-07T14:18:20;23.42;;;8.90;;
64615;SDS011;51027;42.162;24.754;2023-12-07T14:20:45;21.13;;;8.43;;
64615;SDS011;51027;42.162;24.754;2023-12-07T14:23:11;19.02;;;8.38;;
64615;SDS011;51027;42.162;24.754;2023-12-07T14:25:37;22.42;;;9.10;;
64615;SDS011;51027;42.162;24.754;2023-12-07T14:28:05;20.27;;;8.18;;
64615;SDS011;51027;42.162;24.754;2023-12-07T14:30:30;20.48;;;8.63;;
64615;SDS011;51027;42.162;24.754;2023-12-07T14:32:56;22.23;;;8.63;;
64615;SDS011;51027;42.162;24.754;2023-12-07T14:35:21;24.60;;;9.25;;